Time;durP1;ratioP1;P1;durP2;ratioP2;P2;SDS_P1;SDS_P2;PMS_P1;PMS_P2;Temp;Humidity;BMP_temperature;BMP_pressure;BME280_temperature;BME280_humidity;BME280_pressure;Samples;Min_cycle;Max_cycle;Signal;HPM_P1;HPM_P2
2022/07/14 00:00:18;;;;;;;7.10;4.10;;;;;;;19.03;90.57;101173.66;697075;28;1158;-42
2022/07/14 00:00:38;;;;;;;8.50;4.13;;;;;;;19.00;90.94;101176.41;692653;28;1250;-44
2022/07/14 00:00:59;;;;;;;8.48;4.28;;;;;;;19.01;91.28;101172.88;690519;28;1379;-44
2022/07/14 00:01:19;;;;;;;7.77;4.23;;;;;;;19.00;91.23;101178.22;692523;28;1344;-44
2022/07/14 00:01:40;;;;;;;7.18;4.40;;;;;;;18.99;90.88;101181.78;690201;28;969;-43
2022/07/14 00:02:00;;;;;;;7.83;4.40;;;;;;;18.95;91.48;101181.00;688210;28;1112;-42
2022/07/14 00:02:21;;;;;;;6.47;4.07;;;;;;;18.89;91.48;101183.84;689154;28;1221;-43
2022/07/14 00:02:41;;;;;;;7.37;4.13;;;;;;;18.88;91.21;101176.81;691774;28;1184;-44
2022/07/14 00:03:01;;;;;;;7.25;4.40;;;;;;;18.87;91.69;101177.69;695712;28;4228;-43
2022/07/14 00:03:22;;;;;;;7.53;4.23;;;;;;;18.87;91.37;101177.69;697954;28;1228;-43
2022/07/14 00:03:43;;;;;;;8.57;4.30;;;;;;;18.85;91.74;101183.03;698481;28;1153;-43
2022/07/14 00:04:05;;;;;;;6.60;3.92;;;;;;;18.88;91.55;101183.00;696644;28;1320;-43
2022/07/14 00:04:25;;;;;;;7.20;4.10;;;;;;;18.88;90.94;101174.16;697566;28;1098;-44
2022/07/14 00:04:45;;;;;;;7.32;4.25;;;;;;;18.87;91.57;101178.59;698066;28;1961;-43
2022/07/14 00:05:06;;;;;;;6.77;4.10;;;;;;;18.87;91.99;101185.63;696617;28;1213;-44
2022/07/14 00:05:27;;;;;;;7.80;4.50;;;;;;;18.84;92.55;101183.97;697911;28;1280;-43
2022/07/14 00:05:47;;;;;;;7.57;4.53;;;;;;;18.84;91.90;101183.09;697482;28;1182;-44
2022/07/14 00:06:07;;;;;;;7.53;4.47;;;;;;;18.81;91.86;101183.19;697143;28;4372;-43
2022/07/14 00:06:28;;;;;;;7.97;4.40;;;;;;;18.81;92.17;101191.13;697249;28;1221;-45
2022/07/14 00:06:48;;;;;;;7.75;4.50;;;;;;;18.87;92.06;101180.31;697293;28;1165;-44
2022/07/14 00:07:09;;;;;;;8.47;4.90;;;;;;;18.92;91.96;101180.25;697633;28;1336;-44
2022/07/14 00:07:29;;;;;;;8.85;4.85;;;;;;;18.91;91.70;101189.94;697710;28;1403;-43
2022/07/14 00:07:49;;;;;;;9.20;4.57;;;;;;;18.90;91.70;101188.25;697056;28;1143;-43
2022/07/14 00:08:10;;;;;;;10.00;4.40;;;;;;;18.88;91.34;101183.00;698264;28;1347;-44
2022/07/14 00:08:30;;;;;;;7.78;4.60;;;;;;;18.87;92.07;101178.59;697681;28;1404;-46
2022/07/14 00:08:50;;;;;;;6.80;4.20;;;;;;;18.87;91.76;101189.19;697269;28;1221;-43
2022/07/14 00:09:11;;;;;;;7.53;4.32;;;;;;;18.89;91.69;101183.84;693392;28;4356;-45
2022/07/14 00:09:31;;;;;;;7.80;4.60;;;;;;;18.89;92.03;101191.78;695576;28;1281;-43
2022/07/14 00:09:52;;;;;;;6.77;4.50;;;;;;;18.89;92.34;101189.16;695114;28;1395;-43
2022/07/14 00:10:13;;;;;;;6.90;4.47;;;;;;;18.86;92.45;101191.88;694783;28;1396;-43
2022/07/14 00:10:33;;;;;;;6.75;4.65;;;;;;;18.84;92.19;101186.63;699298;28;1218;-43
2022/07/14 00:10:54;;;;;;;9.52;4.50;;;;;;;18.87;92.02;101188.28;697136;28;1375;-44
2022/07/14 00:11:14;;;;;;;8.37;4.50;;;;;;;18.91;91.39;101184.66;698156;28;1470;-43
2022/07/14 00:11:35;;;;;;;7.70;4.30;;;;;;;18.90;91.32;101185.59;699147;28;1411;-43
2022/07/14 00:11:55;;;;;;;8.07;4.53;;;;;;;18.88;91.53;101192.69;697737;28;4260;-45
2022/07/14 00:12:16;;;;;;;7.47;4.60;;;;;;;18.87;92.02;101190.94;695131;28;1187;-45
2022/07/14 00:12:36;;;;;;;6.87;4.60;;;;;;;18.89;91.73;101197.09;695267;28;1126;-45
2022/07/14 00:12:56;;;;;;;7.57;4.90;;;;;;;18.88;92.11;101192.69;696083;28;1146;-45
2022/07/14 00:13:17;;;;;;;7.50;4.60;;;;;;;18.86;91.87;101194.50;695442;28;1287;-43
2022/07/14 00:13:38;;;;;;;8.17;4.70;;;;;;;18.84;91.99;101193.69;696328;28;1184;-43
2022/07/14 00:13:58;;;;;;;9.05;4.60;;;;;;;18.85;92.61;101201.56;695235;28;1263;-44
2022/07/14 00:14:18;;;;;;;9.02;5.30;;;;;;;18.84;92.42;101193.69;698033;28;1214;-45
2022/07/14 00:14:39;;;;;;;8.70;4.53;;;;;;;18.85;92.58;101190.13;696444;28;1433;-44
2022/07/14 00:14:59;;;;;;;7.57;4.50;;;;;;;18.92;92.10;101197.00;694207;28;4449;-44
2022/07/14 00:15:21;;;;;;;7.20;4.38;;;;;;;18.86;92.17;101197.16;694880;28;1217;-43
2022/07/14 00:15:41;;;;;;;9.23;4.50;;;;;;;18.84;91.92;101189.25;695386;28;953;-44
2022/07/14 00:16:02;;;;;;;10.67;4.57;;;;;;;18.84;92.25;101191.91;694842;28;1154;-45
2022/07/14 00:16:23;;;;;;;9.20;4.60;;;;;;;18.84;92.05;101193.69;696319;28;1166;-44
2022/07/14 00:16:43;;;;;;;8.40;4.50;;;;;;;18.83;92.00;101197.22;697858;28;1239;-43
2022/07/14 00:17:03;;;;;;;7.65;4.55;;;;;;;18.81;91.98;101189.34;697118;28;1074;-44
2022/07/14 00:17:24;;;;;;;8.23;4.60;;;;;;;18.83;91.84;101197.22;698391;28;1245;-44
2022/07/14 00:17:44;;;;;;;8.45;4.50;;;;;;;18.96;91.56;101188.03;698168;28;1055;-43
2022/07/14 00:18:05;;;;;;;8.20;4.63;;;;;;;18.90;91.48;101190.88;697727;28;4329;-43
2022/07/14 00:18:25;;;;;;;8.70;4.55;;;;;;;18.88;91.34;101195.34;694170;28;3723;-43
2022/07/14 00:18:46;;;;;;;8.40;4.47;;;;;;;18.86;91.62;101190.06;696238;28;1271;-44
2022/07/14 00:19:06;;;;;;;8.05;4.40;;;;;;;18.85;91.41;101196.28;696555;28;1217;-43
2022/07/14 00:19:27;;;;;;;9.20;4.53;;;;;;;18.86;91.61;101191.88;698053;28;1217;-44
2022/07/14 00:19:48;;;;;;;7.97;4.63;;;;;;;18.83;91.93;101186.63;696592;28;1216;-45
2022/07/14 00:20:09;;;;;;;7.47;4.63;;;;;;;18.82;91.63;101190.22;696657;28;1305;-47
2022/07/14 00:20:30;;;;;;;7.20;4.50;;;;;;;18.83;91.30;101192.81;700593;28;1149;-43
2022/07/14 00:20:50;;;;;;;7.70;4.63;;;;;;;18.82;91.81;101191.06;697623;28;1354;-45
2022/07/14 00:21:15;;;;;;;8.07;4.93;;;;;;;18.80;92.28;101192.03;696722;28;4529;-46
2022/07/14 00:21:35;;;;;;;9.10;4.60;;;;;;;18.79;92.32;101190.28;695350;28;1208;-45
2022/07/14 00:21:57;;;;;;;7.93;4.50;;;;;;;18.80;91.69;101198.22;697583;28;1070;-44
2022/07/14 00:22:25;;;;;;;8.60;4.55;;;;;;;18.81;92.36;101199.06;697988;28;1973;-46
2022/07/14 00:22:45;;;;;;;7.60;4.20;;;;;;;18.79;92.75;101191.19;697934;28;1098;-46
2022/07/14 00:23:05;;;;;;;7.65;4.40;;;;;;;18.78;93.04;101194.72;696988;28;1173;-43
2022/07/14 00:23:26;;;;;;;8.37;4.50;;;;;;;18.79;92.44;101195.59;698005;28;1613;-43
2022/07/14 00:23:47;;;;;;;8.90;4.63;;;;;;;18.77;92.95;101195.63;696771;28;1280;-43
2022/07/14 00:24:11;;;;;;;9.63;4.57;;;;;;;18.75;93.16;101193.94;695249;28;4257;-43
2022/07/14 00:24:31;;;;;;;7.97;4.40;;;;;;;18.75;93.28;101196.59;691190;28;1242;-43
2022/07/14 00:24:51;;;;;;;8.50;4.55;;;;;;;18.75;93.32;101199.25;693209;28;1907;-46
2022/07/14 00:25:12;;;;;;;9.50;4.37;;;;;;;18.86;92.83;101192.72;693482;28;1129;-43
2022/07/14 00:25:32;;;;;;;9.27;4.50;;;;;;;18.85;92.35;101192.78;691016;28;1511;-45
2022/07/14 00:25:53;;;;;;;7.77;4.60;;;;;;;18.83;92.13;101191.94;693475;28;1423;-43
2022/07/14 00:26:14;;;;;;;8.75;4.47;;;;;;;18.80;92.63;101190.28;692084;28;1447;-43
2022/07/14 00:26:36;;;;;;;7.22;4.20;;;;;;;18.80;93.29;101198.22;694162;28;1772;-43
2022/07/14 00:26:56;;;;;;;8.83;4.30;;;;;;;18.84;92.87;101196.31;693857;28;5479;-45
2022/07/14 00:27:16;;;;;;;8.57;4.65;;;;;;;18.98;91.97;101188.88;694366;28;1099;-45
2022/07/14 00:27:37;;;;;;;6.80;4.37;;;;;;;18.97;91.91;101195.06;691579;28;1166;-44
2022/07/14 00:27:57;;;;;;;9.57;4.35;;;;;;;18.90;92.31;101198.84;690955;28;1106;-44
2022/07/14 00:28:18;;;;;;;7.60;4.40;;;;;;;18.85;92.36;101195.41;691890;28;1776;-44
2022/07/14 00:28:39;;;;;;;6.32;4.10;;;;;;;18.83;92.68;101198.13;690154;28;1292;-43
2022/07/14 00:28:59;;;;;;;8.87;4.30;;;;;;;18.78;92.71;101200.03;690118;28;1347;-45
2022/07/14 00:29:19;;;;;;;9.00;4.32;;;;;;;18.75;93.05;101199.25;692785;28;1088;-43
2022/07/14 00:29:41;;;;;;;10.48;4.80;;;;;;;18.73;92.92;101199.28;694166;28;1075;-43
2022/07/14 00:30:04;;;;;;;9.03;4.50;;;;;;;18.71;92.80;101199.34;694801;28;4272;-43
2022/07/14 00:30:25;;;;;;;8.82;4.45;;;;;;;18.68;94.17;101202.09;694815;28;1348;-45
2022/07/14 00:30:50;;;;;;;10.23;4.40;;;;;;;18.70;93.86;101202.91;695059;28;1132;-46
2022/07/14 00:31:11;;;;;;;9.15;4.40;;;;;;;18.69;93.54;101201.19;691141;28;1189;-43
2022/07/14 00:31:32;;;;;;;8.73;4.22;;;;;;;18.70;93.66;101200.25;693665;28;1400;-44
2022/07/14 00:31:53;;;;;;;7.63;4.30;;;;;;;18.67;94.33;101202.13;695610;28;1261;-44
2022/07/14 00:32:13;;;;;;;6.60;4.27;;;;;;;18.69;94.76;101202.94;693618;28;1286;-45
2022/07/14 00:32:35;;;;;;;9.63;4.50;;;;;;;18.71;94.10;101204.63;691110;28;1486;-44
2022/07/14 00:32:55;;;;;;;9.60;4.25;;;;;;;18.67;94.43;101208.28;690680;28;4367;-43
2022/07/14 00:33:16;;;;;;;8.50;4.30;;;;;;;18.69;93.76;101206.47;695351;28;1300;-44
2022/07/14 00:33:38;;;;;;;8.27;4.20;;;;;;;18.80;93.11;101194.69;696178;28;1334;-44
2022/07/14 00:34:00;;;;;;;8.15;4.10;;;;;;;18.78;92.90;101191.22;697511;28;1029;-45
2022/07/14 00:34:20;;;;;;;8.43;4.10;;;;;;;18.73;93.08;101196.66;697297;28;1130;-44
2022/07/14 00:34:41;;;;;;;7.63;4.13;;;;;;;18.74;93.12;101198.38;696791;28;1563;-44
2022/07/14 00:35:03;;;;;;;6.95;4.20;;;;;;;18.72;92.95;101193.16;696791;28;1111;-46
2022/07/14 00:35:23;;;;;;;8.00;4.20;;;;;;;18.71;93.06;101198.50;693474;28;1667;-43
2022/07/14 00:35:45;;;;;;;7.35;3.92;;;;;;;18.71;92.92;101193.19;693193;28;797;-46
2022/07/14 00:36:07;;;;;;;8.32;4.25;;;;;;;18.69;93.86;101195.91;692642;28;4258;-44
2022/07/14 00:36:27;;;;;;;7.63;4.20;;;;;;;18.72;94.09;101190.50;691235;28;1768;-45
2022/07/14 00:36:48;;;;;;;8.63;4.03;;;;;;;18.71;94.13;101194.03;691536;28;809;-45
2022/07/14 00:37:08;;;;;;;8.25;4.00;;;;;;;18.71;93.85;101191.41;687840;28;1334;-43
2022/07/14 00:37:29;;;;;;;7.73;3.90;;;;;;;18.71;93.49;101194.03;691185;28;1302;-44
2022/07/14 00:37:50;;;;;;;7.55;3.80;;;;;;;18.66;93.45;101196.00;689781;28;1927;-43
2022/07/14 00:38:10;;;;;;;7.63;3.70;;;;;;;18.69;93.41;101189.72;690106;28;1046;-45
2022/07/14 00:38:30;;;;;;;8.15;4.00;;;;;;;18.66;93.44;101188.03;688807;28;2309;-44
2022/07/14 00:38:53;;;;;;;6.78;4.05;;;;;;;18.69;93.07;101184.41;687685;28;898;-43
2022/07/14 00:39:13;;;;;;;9.30;3.97;;;;;;;18.68;93.59;101188.00;692459;28;5026;-45
2022/07/14 00:40:13;;;;;;;8.43;4.10;;;;;;;18.62;93.99;101186.41;690806;28;1146;-43
2022/07/14 00:40:33;;;;;;;8.40;4.20;;;;;;;18.61;94.44;101182.00;692020;28;1286;-43
2022/07/14 00:40:53;;;;;;;10.00;4.40;;;;;;;18.60;94.24;101185.56;687125;28;4742;-45
2022/07/14 00:41:14;;;;;;;7.83;4.20;;;;;;;18.58;94.29;101190.06;689396;28;1312;-46
2022/07/14 00:41:34;;;;;;;6.15;3.90;;;;;;;18.57;94.90;101190.97;692118;28;1117;-44
2022/07/14 00:41:55;;;;;;;8.37;4.27;;;;;;;18.60;95.82;101190.00;692002;28;4297;-45
2022/07/14 00:42:36;;;;;;;8.77;4.32;;;;;;;18.61;95.11;101192.59;691917;28;1067;-46
2022/07/14 00:42:56;;;;;;;7.90;4.10;;;;;;;18.61;94.89;101197.00;696485;28;2028;-44
2022/07/14 00:43:17;;;;;;;9.57;3.97;;;;;;;18.58;95.04;101195.34;693722;28;1066;-43
2022/07/14 00:43:38;;;;;;;9.52;4.22;;;;;;;18.56;94.53;101197.16;694799;28;1375;-45
2022/07/14 00:43:59;;;;;;;7.95;4.18;;;;;;;18.52;96.64;101195.50;697084;28;1245;-46
2022/07/14 00:44:19;;;;;;;7.95;4.07;;;;;;;18.49;97.75;101191.19;699056;28;1416;-47
2022/07/14 00:44:41;;;;;;;8.38;4.45;;;;;;;18.48;97.47;101197.38;695399;28;2003;-44
2022/07/14 00:45:06;;;;;;;9.30;4.38;;;;;;;18.49;96.55;101192.97;693356;28;4526;-46
2022/07/14 00:45:26;;;;;;;8.10;3.97;;;;;;;18.48;96.84;101185.94;694196;28;1096;-44
2022/07/14 00:45:46;;;;;;;7.87;4.23;;;;;;;18.48;97.08;101192.06;692225;28;1215;-44
2022/07/14 00:46:07;;;;;;;7.78;4.32;;;;;;;18.48;97.93;101191.22;688519;28;1954;-43
2022/07/14 00:46:27;;;;;;;8.70;4.50;;;;;;;18.44;99.07;101190.47;687132;28;1428;-46
2022/07/14 00:46:48;;;;;;;8.48;4.63;;;;;;;18.42;98.47;101184.34;685961;28;1348;-45
2022/07/14 00:47:10;;;;;;;7.63;4.35;;;;;;;18.41;99.15;101187.03;689113;28;1343;-43
2022/07/14 00:47:32;;;;;;;8.60;4.10;;;;;;;18.35;99.55;101188.94;687938;28;1181;-44
2022/07/14 00:47:52;;;;;;;10.07;4.32;;;;;;;18.31;99.59;101187.28;689988;28;1225;-44
2022/07/14 00:48:13;;;;;;;9.55;4.57;;;;;;;18.28;99.43;101190.03;692368;28;4543;-45
2022/07/14 00:48:34;;;;;;;10.77;4.70;;;;;;;18.29;98.86;101186.47;694942;28;1336;-46
2022/07/14 00:48:54;;;;;;;9.13;4.65;;;;;;;18.27;98.64;101188.28;693338;28;1518;-44
2022/07/14 00:49:34;;;;;;;6.85;4.55;;;;;;;18.26;98.86;101190.97;691341;28;1231;-45
2022/07/14 00:49:55;;;;;;;7.38;4.40;;;;;;;18.27;99.53;101187.44;694906;28;1313;-44
2022/07/14 00:50:18;;;;;;;8.98;4.80;;;;;;;18.22;100.00;101184.91;695833;28;1085;-44
2022/07/14 00:50:41;;;;;;;8.80;4.60;;;;;;;18.19;99.88;101184.97;693027;28;1373;-43
2022/07/14 00:51:03;;;;;;;10.00;4.78;;;;;;;18.17;99.69;101185.03;697239;28;4355;-44
2022/07/14 00:51:24;;;;;;;7.97;4.68;;;;;;;18.19;99.37;101190.28;694590;28;2299;-45
2022/07/14 00:51:44;;;;;;;7.50;4.10;;;;;;;18.20;98.90;101186.72;693914;28;1229;-45
2022/07/14 00:52:05;;;;;;;7.85;4.50;;;;;;;18.18;100.00;101193.84;693313;28;1209;-45
2022/07/14 00:52:27;;;;;;;9.23;4.82;;;;;;;18.16;100.00;101193.00;689619;28;1285;-45
2022/07/14 00:52:49;;;;;;;8.13;4.50;;;;;;;18.12;100.00;101184.28;692120;28;1171;-46
2022/07/14 00:53:11;;;;;;;8.95;4.53;;;;;;;18.10;100.00;101191.41;691152;28;1234;-45
2022/07/14 00:53:31;;;;;;;7.75;4.68;;;;;;;18.12;100.00;101186.06;692842;28;1127;-45
2022/07/14 00:53:56;;;;;;;7.67;4.37;;;;;;;18.13;100.00;101190.47;694257;28;1671;-44
2022/07/14 00:54:26;;;;;;;7.28;4.60;;;;;;;18.10;100.00;101196.69;697533;28;4714;-44
2022/07/14 00:54:46;;;;;;;7.13;4.35;;;;;;;18.12;100.00;101191.38;696231;28;1098;-45
2022/07/14 00:55:08;;;;;;;8.65;4.35;;;;;;;18.15;100.00;101196.56;695593;28;1107;-45
2022/07/14 00:55:29;;;;;;;9.30;4.60;;;;;;;18.11;100.00;101192.28;696906;28;1371;-45
2022/07/14 00:55:50;;;;;;;8.90;4.97;;;;;;;18.08;100.00;101195.84;692244;28;1607;-45
2022/07/14 00:56:10;;;;;;;8.98;5.05;;;;;;;18.05;100.00;101198.59;692213;28;1257;-45
2022/07/14 00:56:31;;;;;;;8.90;4.50;;;;;;;18.02;100.00;101185.47;692442;28;1736;-45
2022/07/14 00:56:52;;;;;;;9.40;4.55;;;;;;;18.02;100.00;101194.25;690803;28;1526;-47
2022/07/14 00:57:12;;;;;;;9.37;4.77;;;;;;;18.01;100.00;101189.91;690841;28;4486;-46
2022/07/14 00:57:33;;;;;;;8.18;4.53;;;;;;;17.99;100.00;101188.19;690961;28;1223;-45
2022/07/14 00:57:53;;;;;;;8.73;4.60;;;;;;;17.95;100.00;101191.84;693118;28;1261;-45
2022/07/14 00:58:14;;;;;;;10.73;4.85;;;;;;;17.93;100.00;101194.53;689912;28;1430;-44
2022/07/14 00:58:34;;;;;;;10.67;5.27;;;;;;;17.92;100.00;101191.94;688109;28;1160;-44
2022/07/14 00:58:55;;;;;;;10.43;5.10;;;;;;;17.91;100.00;101188.41;690229;28;1551;-46
2022/07/14 00:59:15;;;;;;;9.90;5.27;;;;;;;17.92;100.00;101191.94;690922;28;1389;-44
2022/07/14 00:59:35;;;;;;;8.33;4.93;;;;;;;17.93;100.00;101189.25;686960;28;1076;-45
2022/07/14 00:59:59;;;;;;;8.90;4.80;;;;;;;17.96;100.00;101186.50;686369;28;4453;-44
2022/07/14 01:00:19;;;;;;;7.25;4.55;;;;;;;17.98;100.00;101187.31;689732;28;1396;-46
2022/07/14 01:00:40;;;;;;;8.23;4.82;;;;;;;17.96;100.00;101183.00;688803;28;1061;-46
2022/07/14 01:01:00;;;;;;;8.33;4.40;;;;;;;17.93;100.00;101183.06;692404;28;1152;-45
2022/07/14 01:01:21;;;;;;;7.95;4.32;;;;;;;17.92;100.00;101186.63;688515;28;1308;-45
2022/07/14 01:01:41;;;;;;;7.90;4.65;;;;;;;17.90;100.00;101183.13;689635;28;1085;-45
2022/07/14 01:02:02;;;;;;;9.27;4.77;;;;;;;17.94;100.00;101176.88;691434;28;1144;-45
2022/07/14 01:02:23;;;;;;;9.27;4.72;;;;;;;17.94;100.00;101180.38;691447;28;1159;-46
2022/07/14 01:02:45;;;;;;;8.27;4.50;;;;;;;17.96;100.00;101181.22;694384;28;1116;-45
2022/07/14 01:03:05;;;;;;;8.25;4.57;;;;;;;17.95;100.00;101179.47;694038;28;4880;-45
2022/07/14 01:03:26;;;;;;;8.33;4.87;;;;;;;17.97;100.00;101177.66;693136;28;1163;-45
2022/07/14 01:03:46;;;;;;;7.90;4.57;;;;;;;17.98;100.00;101175.88;693327;28;1202;-44
2022/07/14 01:04:07;;;;;;;7.82;4.60;;;;;;;17.98;100.00;101174.09;689856;28;1204;-45
2022/07/14 01:04:27;;;;;;;8.30;4.53;;;;;;;18.00;100.00;101172.28;690666;28;1060;-45
2022/07/14 01:04:49;;;;;;;7.68;4.57;;;;;;;18.00;100.00;101167.00;689098;28;1910;-46
2022/07/14 01:05:10;;;;;;;8.30;4.70;;;;;;;17.99;100.00;101175.81;691374;28;1317;-45
2022/07/14 01:05:31;;;;;;;9.13;4.72;;;;;;;17.97;100.00;101169.72;693529;28;1365;-44
2022/07/14 01:05:52;;;;;;;8.48;4.75;;;;;;;17.96;100.00;101172.41;694082;28;1238;-45
2022/07/14 01:06:12;;;;;;;8.07;4.53;;;;;;;17.95;100.00;101170.69;688585;28;4239;-46
2022/07/14 01:06:32;;;;;;;7.73;4.50;;;;;;;17.97;100.00;101171.50;692223;28;1267;-47
2022/07/14 01:06:53;;;;;;;7.20;4.60;;;;;;;17.95;100.00;101168.88;694877;28;1415;-45
2022/07/14 01:07:17;;;;;;;8.13;4.68;;;;;;;17.92;100.00;101170.78;692087;28;1254;-45
2022/07/14 01:07:37;;;;;;;9.77;4.78;;;;;;;17.99;100.00;101173.19;694368;28;1417;-46
2022/07/14 01:07:58;;;;;;;9.73;5.00;;;;;;;17.99;100.00;101173.19;693314;28;1342;-45
2022/07/14 01:08:18;;;;;;;8.00;4.88;;;;;;;18.00;100.00;101174.94;692293;28;1151;-47
2022/07/14 01:08:38;;;;;;;8.03;4.97;;;;;;;18.00;100.00;101177.56;689845;28;1251;-45
2022/07/14 01:08:59;;;;;;;8.13;4.97;;;;;;;18.01;100.00;101178.44;689234;28;4403;-45
2022/07/14 01:09:22;;;;;;;11.07;5.38;;;;;;;18.00;100.00;101177.56;691142;28;1350;-44
2022/07/14 01:09:44;;;;;;;10.10;5.55;;;;;;;18.02;100.00;101178.38;690386;28;1152;-46
2022/07/14 01:10:06;;;;;;;10.68;5.93;;;;;;;18.04;100.00;101180.97;691144;28;1123;-47
2022/07/14 01:10:27;;;;;;;11.60;6.40;;;;;;;18.07;100.00;101187.97;692475;28;1132;-46
2022/07/14 01:10:47;;;;;;;13.55;6.65;;;;;;;18.08;100.00;101187.06;691538;28;1275;-45
2022/07/14 01:11:09;;;;;;;13.05;6.30;;;;;;;18.08;100.00;101187.91;686567;28;1211;-46
2022/07/14 01:11:29;;;;;;;14.83;6.57;;;;;;;18.08;100.00;101187.06;690136;28;1227;-46
2022/07/14 01:11:49;;;;;;;11.43;6.13;;;;;;;18.08;100.00;101190.56;691363;28;1191;-46
2022/07/14 01:12:10;;;;;;;11.02;5.88;;;;;;;18.08;100.00;101189.72;689940;28;4467;-46
2022/07/14 01:12:31;;;;;;;9.45;5.57;;;;;;;18.06;100.00;101188.91;690266;28;1219;-46
2022/07/14 01:12:52;;;;;;;9.95;5.57;;;;;;;18.07;100.00;101185.31;691581;28;1295;-44
2022/07/14 01:13:12;;;;;;;10.98;5.65;;;;;;;18.06;100.00;101184.47;693617;28;1327;-45
2022/07/14 01:13:34;;;;;;;9.80;5.30;;;;;;;18.07;100.00;101185.31;691894;28;1188;-46
2022/07/14 01:13:55;;;;;;;10.02;5.20;;;;;;;18.06;100.00;101183.63;691918;28;1345;-45
2022/07/14 01:14:17;;;;;;;9.30;5.30;;;;;;;18.02;100.00;101180.19;694212;28;1225;-47
2022/07/14 01:14:39;;;;;;;9.83;5.20;;;;;;;17.96;100.00;101175.91;693498;28;4823;-44
2022/07/14 01:14:59;;;;;;;10.77;4.88;;;;;;;17.94;100.00;101177.72;695018;28;4441;-46
2022/07/14 01:15:19;;;;;;;10.35;5.03;;;;;;;17.92;100.00;101174.28;697180;28;1157;-44
2022/07/14 01:15:40;;;;;;;13.07;5.60;;;;;;;17.92;100.00;101179.56;697273;28;1125;-44
2022/07/14 01:16:02;;;;;;;10.23;5.73;;;;;;;17.89;100.00;101169.03;695412;28;1121;-45
2022/07/14 01:16:22;;;;;;;10.18;5.35;;;;;;;17.88;100.00;101176.09;694809;28;1070;-44
2022/07/14 01:16:43;;;;;;;8.57;5.13;;;;;;;17.87;100.00;101173.50;698049;28;1174;-44
2022/07/14 01:17:04;;;;;;;9.18;5.63;;;;;;;17.88;100.00;101172.59;697001;28;1152;-46
2022/07/14 01:17:24;;;;;;;9.07;5.15;;;;;;;17.89;100.00;101176.97;696017;28;1169;-44
2022/07/14 01:17:49;;;;;;;9.53;4.80;;;;;;;17.91;100.00;101175.16;695615;28;1055;-45
2022/07/14 01:18:09;;;;;;;10.20;4.80;;;;;;;17.89;100.00;101171.69;693868;28;4515;-47
2022/07/14 01:18:29;;;;;;;9.67;4.80;;;;;;;17.91;100.00;101175.16;690205;28;1316;-45
2022/07/14 01:18:50;;;;;;;8.17;4.77;;;;;;;17.91;100.00;101177.81;690802;28;1124;-44
2022/07/14 01:19:12;;;;;;;9.48;4.75;;;;;;;17.93;100.00;101176.00;692866;28;1363;-44
2022/07/14 01:19:33;;;;;;;9.02;4.88;;;;;;;17.90;100.00;101168.09;690376;28;1334;-46
2022/07/14 01:19:54;;;;;;;8.57;4.93;;;;;;;17.88;100.00;101167.28;689049;28;1243;-45
2022/07/14 01:20:15;;;;;;;10.20;5.00;;;;;;;17.88;100.00;101164.66;689642;28;1452;-46
2022/07/14 01:20:36;;;;;;;9.98;4.80;;;;;;;17.90;100.00;101169.91;689306;28;1108;-46
2022/07/14 01:20:56;;;;;;;8.83;4.70;;;;;;;17.89;100.00;101166.41;689387;28;4360;-45
2022/07/14 01:21:16;;;;;;;8.83;4.77;;;;;;;17.88;100.00;101164.66;687815;28;1284;-44
2022/07/14 01:21:37;;;;;;;9.52;4.50;;;;;;;17.88;100.00;101164.66;689118;28;1282;-46
2022/07/14 01:21:58;;;;;;;9.57;4.50;;;;;;;17.86;100.00;101156.75;690326;28;1118;-44
2022/07/14 01:22:18;;;;;;;9.30;4.45;;;;;;;17.88;100.00;101162.00;688300;28;1139;-43
2022/07/14 01:22:39;;;;;;;7.97;4.60;;;;;;;17.90;100.00;101162.81;687057;28;1384;-46
2022/07/14 01:23:01;;;;;;;8.30;4.70;;;;;;;17.90;100.00;101157.53;687069;28;1194;-45
2022/07/14 01:23:22;;;;;;;7.63;4.53;;;;;;;17.92;100.00;101165.47;688823;28;1465;-44
2022/07/14 01:23:43;;;;;;;7.43;4.32;;;;;;;17.94;100.00;101163.66;689901;28;1272;-45
2022/07/14 01:24:04;;;;;;;8.50;4.75;;;;;;;17.89;100.00;101166.41;689959;28;4353;-45
2022/07/14 01:24:25;;;;;;;8.77;4.80;;;;;;;17.91;100.00;101164.59;691342;28;1179;-44
2022/07/14 01:24:45;;;;;;;7.90;4.32;;;;;;;17.92;100.00;101163.69;693641;28;1964;-47
2022/07/14 01:25:07;;;;;;;7.82;4.22;;;;;;;17.93;100.00;101168.09;691471;28;1144;-44
2022/07/14 01:25:30;;;;;;;9.77;4.63;;;;;;;17.91;100.00;101161.06;690109;28;1263;-44
2022/07/14 01:25:51;;;;;;;9.80;4.90;;;;;;;17.91;100.00;101161.94;690493;28;1293;-44
2022/07/14 01:26:11;;;;;;;8.57;4.63;;;;;;;17.88;100.00;101162.00;688157;28;1444;-45
2022/07/14 01:26:31;;;;;;;7.90;4.50;;;;;;;17.88;100.00;101167.28;687958;28;1393;-44
2022/07/14 01:26:52;;;;;;;9.07;5.00;;;;;;;17.86;100.00;101169.09;685864;28;1792;-45
2022/07/14 01:27:13;;;;;;;9.82;4.85;;;;;;;17.83;100.00;101171.84;693306;28;4407;-45
2022/07/14 01:27:34;;;;;;;8.67;4.40;;;;;;;17.80;100.00;101166.63;693461;28;1423;-46
2022/07/14 01:27:54;;;;;;;7.85;4.85;;;;;;;17.81;100.00;101171.88;691820;28;1317;-45
2022/07/14 01:28:15;;;;;;;7.57;4.57;;;;;;;17.81;100.00;101168.38;692325;28;1295;-45
2022/07/14 01:28:35;;;;;;;9.15;4.90;;;;;;;17.79;100.00;101171.06;690198;28;1358;-45
2022/07/14 01:28:55;;;;;;;9.70;5.03;;;;;;;17.77;100.00;101169.38;689399;28;1559;-45
2022/07/14 01:29:16;;;;;;;9.67;5.00;;;;;;;17.75;100.00;101166.75;691395;28;1528;-46
2022/07/14 01:29:37;;;;;;;8.10;4.75;;;;;;;17.75;100.00;101161.47;692036;28;1178;-45
2022/07/14 01:29:58;;;;;;;7.78;4.72;;;;;;;17.78;100.00;101168.47;691012;28;4917;-44
2022/07/14 01:30:18;;;;;;;9.55;4.78;;;;;;;17.79;100.00;101170.19;691422;28;1204;-44
2022/07/14 01:30:38;;;;;;;9.57;4.70;;;;;;;17.78;100.00;101168.47;694188;28;1257;-46
2022/07/14 01:31:00;;;;;;;9.35;4.80;;;;;;;17.77;100.00;101172.88;691150;28;1789;-44
2022/07/14 01:31:20;;;;;;;7.40;4.72;;;;;;;17.78;100.00;101168.47;693757;28;1114;-45
2022/07/14 01:31:41;;;;;;;7.90;4.70;;;;;;;17.78;100.00;101174.59;695336;28;1274;-45
2022/07/14 01:32:01;;;;;;;9.65;4.43;;;;;;;17.80;100.00;101174.56;696350;28;1201;-45
2022/07/14 01:32:22;;;;;;;8.73;4.45;;;;;;;17.82;100.00;101170.09;691706;28;2305;-45
2022/07/14 01:32:43;;;;;;;8.90;4.72;;;;;;;17.83;100.00;101174.47;693344;28;1477;-45
2022/07/14 01:33:04;;;;;;;9.38;5.05;;;;;;;17.83;100.00;101177.13;696613;28;4455;-44
2022/07/14 01:33:24;;;;;;;7.03;4.80;;;;;;;17.85;100.00;101175.31;695623;28;2051;-44
2022/07/14 01:33:45;;;;;;;8.07;4.75;;;;;;;17.81;100.00;101171.03;696408;28;1285;-46
2022/07/14 01:34:05;;;;;;;8.40;4.73;;;;;;;17.80;100.00;101174.56;692928;28;2042;-45
2022/07/14 01:34:27;;;;;;;8.77;4.83;;;;;;;17.81;100.00;101176.31;695080;28;1150;-46
2022/07/14 01:34:49;;;;;;;9.15;4.70;;;;;;;17.81;100.00;101173.66;691857;28;973;-46
2022/07/14 01:35:10;;;;;;;9.40;4.70;;;;;;;17.79;100.00;101168.41;693201;28;1261;-45
2022/07/14 01:35:30;;;;;;;8.65;4.65;;;;;;;17.78;100.00;101164.03;690431;28;1321;-44
2022/07/14 01:35:51;;;;;;;7.70;4.57;;;;;;;17.76;100.00;101162.34;692568;28;1425;-44
2022/07/14 01:36:13;;;;;;;7.90;4.68;;;;;;;17.76;100.00;101164.97;695494;28;4822;-46
2022/07/14 01:36:35;;;;;;;8.38;4.18;;;;;;;17.77;100.00;101164.06;695885;28;1300;-45
2022/07/14 01:36:55;;;;;;;8.55;4.55;;;;;;;17.78;100.00;101163.19;692744;28;1416;-46
2022/07/14 01:37:16;;;;;;;9.45;4.50;;;;;;;17.77;100.00;101158.78;691206;28;1511;-45
2022/07/14 01:37:37;;;;;;;9.15;4.70;;;;;;;17.77;100.00;101161.44;693089;28;2088;-45
2022/07/14 01:38:01;;;;;;;7.97;4.80;;;;;;;17.78;100.00;101153.47;690898;28;1309;-46
2022/07/14 01:38:22;;;;;;;9.85;4.95;;;;;;;17.78;100.00;101152.59;689544;28;1485;-44
2022/07/14 01:38:42;;;;;;;9.95;5.05;;;;;;;17.76;100.00;101162.34;691991;28;1260;-44
2022/07/14 01:39:04;;;;;;;7.50;4.50;;;;;;;17.76;100.00;101162.34;691179;28;5490;-46
2022/07/14 01:39:24;;;;;;;8.60;4.70;;;;;;;17.77;100.00;101154.34;688328;28;1402;-45
2022/07/14 01:39:45;;;;;;;11.07;5.07;;;;;;;17.78;100.00;101156.09;688741;28;1116;-46
2022/07/14 01:40:06;;;;;;;10.90;4.90;;;;;;;17.78;100.00;101152.59;689873;28;1114;-44
2022/07/14 01:40:27;;;;;;;7.63;4.68;;;;;;;17.79;100.00;101156.97;691572;28;1045;-44